Time,TemperatureF,DewpointF,PressureIn,WindDirection,WindDirectionDegrees,WindSpeedMPH,WindSpeedGustMPH,Humidity,HourlyPrecipIn,Conditions,Clouds,dailyrainin,SoftwareType,DateUTC
2013-11-09 00:00:00,46.0,37.2,29.48,SSW,201,17.0,29.0,71,0.00,RA,RA,0.00,WeatherDisplay:10.37,2013-11-09 00:00:00,
2013-11-09 00:10:00,45.6,37.1,29.48,South,183,18.0,23.0,72,0.00,CLR,CLR,0.00,WeatherDisplay:10.37,2013-11-09 00:10:00,
2013-11-09 00:20:00,46.4,37.9,29.48,SSW,210,14.0,25.0,72,0.00,CLR,CLR,0.00,WeatherDisplay:10.37,2013-11-09 00:20:00,
2013-11-09 00:30:00,48.0,37.1,29.48,WSW,254,16.0,24.0,66,0.00,CLR,CLR,0.00,WeatherDisplay:10.37,2013-11-09 00:30:00,
2013-11-09 00:40:00,48.7,37.5,29.48,West,274,15.0,24.0,65,0.00,CLR,CLR,0.00,WeatherDisplay:10.37,2013-11-09 00:40:00,
2013-11-09 00:50:00,48.7,37.5,29.48,West,268,17.0,24.0,65,0.00,CLR,CLR,0.00,WeatherDisplay:10.37,2013-11-09 00:50:00,
2013-11-09 01:00:00,48.9,36.9,29.47,WSW,250,14.0,24.0,63,0.00,CLR,CLR,0.00,WeatherDisplay:10.37,2013-11-09 01:00:00,
2013-11-09 01:10:00,49.1,37.4,29.47,SW,225,16.0,29.0,64,0.00,CLR,CLR,0.00,WeatherDisplay:10.37,2013-11-09 01:10:00,
2013-11-09 01:20:00,49.3,37.2,29.47,WSW,241,15.0,23.0,63,0.00,CLR,CLR,0.00,WeatherDisplay:10.37,2013-11-09 01:20:00,
2013-11-09 01:30:00,48.9,37.7,29.47,WNW,283,12.0,22.0,65,0.00,CLR,CLR,0.00,WeatherDisplay:10.37,2013-11-09 01:30:00,
2013-11-09 01:40:00,48.2,36.6,29.48,NW,318,10.0,17.0,64,0.00,CLR,CLR,0.00,WeatherDisplay:10.37,2013-11-09 01:40:00,
2013-11-09 01:50:00,47.6,36.8,29.48,NW,309,5.0,16.0,66,0.00,CLR,CLR,0.00,WeatherDisplay:10.37,2013-11-09 01:50:00,
2013-11-09 02:00:00,46.4,36.0,29.48,North,1,3.0,10.0,67,0.00,CLR,CLR,0.00,WeatherDisplay:10.37,2013-11-09 02:00:00,
2013-11-09 02:10:00,46.4,36.0,29.47,WNW,301,5.0,12.0,67,0.00,CLR,CLR,0.00,WeatherDisplay:10.37,2013-11-09 02:10:00,
2013-11-09 02:20:00,47.5,36.7,29.47,WNW,293,7.0,14.0,66,0.00,CLR,CLR,0.00,WeatherDisplay:10.37,2013-11-09 02:20:00,
2013-11-09 02:30:00,47.7,36.5,29.47,WNW,292,7.0,14.0,65,0.00,CLR,CLR,0.00,WeatherDisplay:10.37,2013-11-09 02:30:00,
2013-11-09 02:40:00,47.1,36.3,29.47,WNW,287,8.0,13.0,66,0.00,CLR,CLR,0.00,WeatherDisplay:10.37,2013-11-09 02:40:00,
2013-11-09 02:50:00,47.7,36.9,29.47,NW,304,8.0,13.0,66,0.00,CLR,CLR,0.00,WeatherDisplay:10.37,2013-11-09 02:50:00,
2013-11-09 03:00:00,46.3,34.8,29.47,WNW,284,24.0,34.0,64,0.01,RA,RA,0.01,WeatherDisplay:10.37,2013-11-09 03:00:00,
2013-11-09 03:10:00,46.0,36.4,29.47,WNW,283,12.0,33.0,69,0.00,CLR,CLR,0.01,WeatherDisplay:10.37,2013-11-09 03:10:00,
2013-11-09 03:20:00,46.2,37.0,29.47,NNW,327,6.0,15.0,70,0.01,RA,RA,0.02,WeatherDisplay:10.37,2013-11-09 03:20:00,
2013-11-09 03:30:00,44.9,36.1,29.47,NNE,13,2.0,9.0,71,0.01,RA,RA,0.04,WeatherDisplay:10.37,2013-11-09 03:30:00,
2013-11-09 03:40:00,43.5,35.4,29.46,NE,34,2.0,6.0,73,0.00,CLR,CLR,0.04,WeatherDisplay:10.37,2013-11-09 03:40:00,
2013-11-09 03:50:00,43.2,35.4,29.47,NE,45,2.0,6.0,74,0.00,CLR,CLR,0.04,WeatherDisplay:10.37,2013-11-09 03:50:00,
2013-11-09 04:00:00,42.6,35.6,29.46,East,80,2.0,6.0,76,0.00,CLR,CLR,0.04,WeatherDisplay:10.37,2013-11-09 04:00:00,
2013-11-09 04:10:00,42.6,35.6,29.48,ESE,111,1.0,6.0,76,0.00,CLR,CLR,0.04,WeatherDisplay:10.37,2013-11-09 04:10:00,
2013-11-09 04:20:00,41.7,35.4,29.48,NE,53,2.0,11.0,78,0.01,RA,RA,0.05,WeatherDisplay:10.37,2013-11-09 04:20:00,
2013-11-09 04:30:00,41.5,35.5,29.48,NNE,33,1.0,5.0,79,0.01,RA,RA,0.06,WeatherDisplay:10.37,2013-11-09 04:30:00,
2013-11-09 04:40:00,41.0,35.3,29.47,ENE,76,1.0,8.0,80,0.01,RA,RA,0.07,WeatherDisplay:10.37,2013-11-09 04:40:00,
2013-11-09 04:50:00,41.4,36.0,29.47,East,98,0.0,4.0,81,0.00,CLR,CLR,0.07,WeatherDisplay:10.37,2013-11-09 04:50:00,
2013-11-09 05:00:00,40.8,35.7,29.47,East,93,2.0,6.0,82,0.00,CLR,CLR,0.07,WeatherDisplay:10.37,2013-11-09 05:00:00,
2013-11-09 05:10:00,40.1,35.4,29.47,SE,129,3.0,6.0,83,0.00,CLR,CLR,0.07,WeatherDisplay:10.37,2013-11-09 05:10:00,
2013-11-09 05:20:00,40.3,36.1,29.47,SSE,148,5.0,9.0,85,0.00,CLR,CLR,0.07,WeatherDisplay:10.37,2013-11-09 05:20:00,
2013-11-09 05:30:00,40.5,36.6,29.47,SSE,151,6.0,8.0,86,0.00,CLR,CLR,0.07,WeatherDisplay:10.37,2013-11-09 05:30:00,
2013-11-09 05:40:00,40.6,36.8,29.47,SSE,154,5.0,9.0,86,0.00,CLR,CLR,0.07,WeatherDisplay:10.37,2013-11-09 05:40:00,
2013-11-09 05:50:00,40.6,36.5,29.47,SE,142,7.0,8.0,85,0.00,CLR,CLR,0.07,WeatherDisplay:10.37,2013-11-09 05:50:00,
2013-11-09 06:00:00,40.4,36.3,29.47,SE,127,3.0,8.0,85,0.00,CLR,CLR,0.07,WeatherDisplay:10.37,2013-11-09 06:00:00,
2013-11-09 06:10:00,40.1,36.0,29.47,ESE,116,3.0,6.0,85,0.00,CLR,CLR,0.07,WeatherDisplay:10.37,2013-11-09 06:10:00,
2013-11-09 06:20:00,39.9,36.1,29.48,ESE,110,3.0,6.0,86,0.00,CLR,CLR,0.07,WeatherDisplay:10.37,2013-11-09 06:20:00,
2013-11-09 06:30:00,40.1,36.2,29.47,SE,132,2.0,7.0,86,0.00,CLR,CLR,0.07,WeatherDisplay:10.37,2013-11-09 06:30:00,
2013-11-09 06:40:00,40.2,36.3,29.47,SE,124,1.0,5.0,86,0.00,CLR,CLR,0.07,WeatherDisplay:10.37,2013-11-09 06:40:00,
2013-11-09 06:50:00,40.8,37.3,29.47,SSE,149,1.0,5.0,87,0.00,CLR,CLR,0.07,WeatherDisplay:10.37,2013-11-09 06:50:00,
2013-11-09 07:00:00,42.9,38.7,29.47,West,265,6.0,8.0,85,0.00,CLR,CLR,0.07,WeatherDisplay:10.37,2013-11-09 07:00:00,
2013-11-09 07:10:00,44.1,38.3,29.46,West,273,7.0,10.0,80,0.00,CLR,CLR,0.07,WeatherDisplay:10.37,2013-11-09 07:10:00,
2013-11-09 07:20:00,44.2,36.8,29.47,WNW,298,6.0,10.0,75,0.00,CLR,CLR,0.07,WeatherDisplay:10.37,2013-11-09 07:20:00,
2013-11-09 07:30:00,44.7,36.9,29.47,WNW,292,7.0,11.0,74,0.00,CLR,CLR,0.07,WeatherDisplay:10.37,2013-11-09 07:30:00,
2013-11-09 07:40:00,44.6,37.5,29.47,West,267,8.0,12.0,76,0.00,CLR,CLR,0.07,WeatherDisplay:10.37,2013-11-09 07:40:00,
2013-11-09 07:50:00,44.9,37.5,29.47,WNW,295,9.0,13.0,75,0.00,CLR,CLR,0.07,WeatherDisplay:10.37,2013-11-09 07:50:00,
2013-11-09 08:00:00,45.3,37.5,29.47,WNW,301,13.0,17.0,74,0.00,CLR,CLR,0.07,WeatherDisplay:10.37,2013-11-09 08:00:00,
2013-11-09 08:10:00,45.8,37.0,29.47,West,277,13.0,18.0,71,0.00,CLR,CLR,0.07,WeatherDisplay:10.37,2013-11-09 08:10:00,
2013-11-09 08:20:00,46.2,37.7,29.48,WNW,303,13.0,16.0,72,0.00,CLR,CLR,0.07,WeatherDisplay:10.37,2013-11-09 08:20:00,
2013-11-09 08:30:00,46.9,37.7,29.48,West,277,12.0,17.0,70,0.00,CLR,CLR,0.07,WeatherDisplay:10.37,2013-11-09 08:30:00,
2013-11-09 08:40:00,47.5,38.2,29.48,WNW,283,15.0,20.0,70,0.00,CLR,CLR,0.07,WeatherDisplay:10.37,2013-11-09 08:40:00,
2013-11-09 08:50:00,48.4,37.5,29.49,West,277,16.0,21.0,66,0.00,CLR,CLR,0.07,WeatherDisplay:10.37,2013-11-09 08:50:00,
2013-11-09 09:00:00,48.7,37.9,29.48,West,272,13.0,25.0,66,0.00,CLR,CLR,0.07,WeatherDisplay:10.37,2013-11-09 09:00:00,
2013-11-09 09:10:00,51.5,40.9,29.39,WSW,250,13.0,20.0,67,0.00,CLR,CLR,0.07,WeatherDisplay:10.37,2013-11-09 09:10:00,
2013-11-09 09:20:00,50.1,39.2,29.48,WSW,257,13.0,23.0,66,0.00,CLR,CLR,0.07,WeatherDisplay:10.37,2013-11-09 09:20:00,
2013-11-09 09:30:00,49.6,38.7,29.48,West,274,20.0,26.0,66,0.00,CLR,CLR,0.07,WeatherDisplay:10.37,2013-11-09 09:30:00,
2013-11-09 09:40:00,47.3,36.5,29.47,WNW,287,13.0,28.0,66,0.01,RA,RA,0.08,WeatherDisplay:10.37,2013-11-09 09:40:00,
2013-11-09 09:50:00,47.8,38.5,29.48,WSW,257,14.0,23.0,70,0.00,CLR,CLR,0.08,WeatherDisplay:10.37,2013-11-09 09:50:00,
2013-11-09 10:00:00,48.0,39.4,29.48,West,281,13.0,22.0,72,0.00,CLR,CLR,0.08,WeatherDisplay:10.37,2013-11-09 10:00:00,
2013-11-09 10:10:00,47.7,38.7,29.48,West,275,9.0,21.0,71,0.00,CLR,CLR,0.08,WeatherDisplay:10.37,2013-11-09 10:10:00,
2013-11-09 10:20:00,47.3,38.4,29.48,West,264,12.0,14.0,71,0.00,CLR,CLR,0.08,WeatherDisplay:10.37,2013-11-09 10:20:00,
2013-11-09 10:30:00,49.5,39.3,29.48,West,270,9.0,16.0,68,0.00,CLR,CLR,0.08,WeatherDisplay:10.37,2013-11-09 10:30:00,
2013-11-09 10:40:00,50.0,39.1,29.48,West,267,9.0,15.0,66,0.00,CLR,CLR,0.08,WeatherDisplay:10.37,2013-11-09 10:40:00,
2013-11-09 10:50:00,49.6,39.5,29.48,West,275,8.0,15.0,68,0.00,CLR,CLR,0.08,WeatherDisplay:10.37,2013-11-09 10:50:00,
2013-11-09 11:00:00,49.3,39.9,29.48,West,273,12.0,16.0,70,0.00,CLR,CLR,0.08,WeatherDisplay:10.37,2013-11-09 11:00:00,
2013-11-09 11:10:00,49.1,39.7,29.48,West,260,8.0,14.0,70,0.00,CLR,CLR,0.08,WeatherDisplay:10.37,2013-11-09 11:10:00,
2013-11-09 11:20:00,49.6,39.5,29.48,West,270,9.0,15.0,68,0.00,CLR,CLR,0.08,WeatherDisplay:10.37,2013-11-09 11:20:00,
2013-11-09 11:30:00,49.8,39.7,29.48,West,269,8.0,13.0,68,0.00,CLR,CLR,0.08,WeatherDisplay:10.37,2013-11-09 11:30:00,
2013-11-09 11:40:00,50.0,39.1,29.47,WNW,295,10.0,16.0,66,0.00,CLR,CLR,0.08,WeatherDisplay:10.37,2013-11-09 11:40:00,
2013-11-09 11:50:00,50.0,39.5,29.47,WNW,284,10.0,17.0,67,0.00,CLR,CLR,0.08,WeatherDisplay:10.37,2013-11-09 11:50:00,
2013-11-09 12:00:00,50.2,38.9,29.47,West,269,17.0,23.0,65,0.00,CLR,CLR,0.08,WeatherDisplay:10.37,2013-11-09 12:00:00,
2013-11-09 12:10:00,50.2,38.5,29.47,West,278,13.0,22.0,64,0.00,CLR,CLR,0.08,WeatherDisplay:10.37,2013-11-09 12:10:00,
2013-11-09 12:20:00,50.0,38.3,29.47,West,280,13.0,21.0,64,0.00,CLR,CLR,0.08,WeatherDisplay:10.37,2013-11-09 12:20:00,
2013-11-09 12:30:00,49.6,39.1,29.46,West,263,12.0,21.0,67,0.00,CLR,CLR,0.08,WeatherDisplay:10.37,2013-11-09 12:30:00,
2013-11-09 12:40:00,49.6,39.5,29.46,WNW,303,12.0,17.0,68,0.00,CLR,CLR,0.08,WeatherDisplay:10.37,2013-11-09 12:40:00,
2013-11-09 12:50:00,49.6,38.7,29.46,WNW,289,12.0,21.0,66,0.00,CLR,CLR,0.08,WeatherDisplay:10.37,2013-11-09 12:50:00,
2013-11-09 13:00:00,49.8,39.3,29.45,West,279,7.0,15.0,67,0.00,CLR,CLR,0.08,WeatherDisplay:10.37,2013-11-09 13:00:00,
2013-11-09 13:10:00,50.0,39.4,29.45,West,276,7.0,13.0,67,0.00,CLR,CLR,0.08,WeatherDisplay:10.37,2013-11-09 13:10:00,
2013-11-09 13:20:00,49.8,40.1,29.45,West,279,10.0,15.0,69,0.00,CLR,CLR,0.08,WeatherDisplay:10.37,2013-11-09 13:20:00,
2013-11-09 13:30:00,49.6,38.7,29.45,WNW,290,9.0,15.0,66,0.00,CLR,CLR,0.08,WeatherDisplay:10.37,2013-11-09 13:30:00,
2013-11-09 13:40:00,49.6,38.7,29.45,West,281,8.0,13.0,66,0.00,CLR,CLR,0.08,WeatherDisplay:10.37,2013-11-09 13:40:00,
2013-11-09 13:50:00,49.6,38.3,29.45,WNW,293,8.0,13.0,65,0.00,CLR,CLR,0.08,WeatherDisplay:10.37,2013-11-09 13:50:00,
2013-11-09 14:00:00,49.5,38.6,29.44,West,281,9.0,13.0,66,0.00,CLR,CLR,0.08,WeatherDisplay:10.37,2013-11-09 14:00:00,
2013-11-09 14:10:00,49.5,39.0,29.45,West,277,10.0,17.0,67,0.00,CLR,CLR,0.08,WeatherDisplay:10.37,2013-11-09 14:10:00,
2013-11-09 14:20:00,49.5,35.3,29.45,West,280,15.0,25.0,58,0.00,CLR,CLR,0.08,WeatherDisplay:10.37,2013-11-09 14:20:00,
2013-11-09 14:30:00,48.7,37.8,29.44,West,281,15.0,21.0,66,0.00,CLR,CLR,0.08,WeatherDisplay:10.37,2013-11-09 14:30:00,
2013-11-09 14:40:00,47.0,38.4,29.44,West,262,12.0,24.0,72,0.00,CLR,CLR,0.08,WeatherDisplay:10.37,2013-11-09 14:40:00,
2013-11-09 14:50:00,46.6,38.7,29.44,West,276,10.0,20.0,74,0.00,CLR,CLR,0.08,WeatherDisplay:10.37,2013-11-09 14:50:00,
2013-11-09 15:00:00,46.6,39.1,29.44,WNW,292,8.0,13.0,75,0.00,CLR,CLR,0.08,WeatherDisplay:10.37,2013-11-09 15:00:00,
2013-11-09 15:10:00,46.8,39.3,29.44,West,278,10.0,15.0,75,0.00,CLR,CLR,0.08,WeatherDisplay:10.37,2013-11-09 15:10:00,
2013-11-09 15:20:00,46.9,39.8,29.44,NW,306,6.0,14.0,76,0.00,CLR,CLR,0.08,WeatherDisplay:10.37,2013-11-09 15:20:00,
2013-11-09 15:30:00,46.4,39.5,29.44,WNW,302,6.0,9.0,77,0.01,RA,RA,0.09,WeatherDisplay:10.37,2013-11-09 15:30:00,
2013-11-09 15:40:00,46.0,39.2,29.44,WNW,291,5.0,8.0,77,0.00,CLR,CLR,0.09,WeatherDisplay:10.37,2013-11-09 15:40:00,
2013-11-09 15:50:00,45.9,39.1,29.43,West,278,5.0,8.0,77,0.00,CLR,CLR,0.09,WeatherDisplay:10.37,2013-11-09 15:50:00,
2013-11-09 16:00:00,45.9,38.7,29.43,West,278,3.0,9.0,76,0.00,CLR,CLR,0.09,WeatherDisplay:10.37,2013-11-09 16:00:00,
2013-11-09 16:10:00,45.7,38.2,29.43,WSW,258,3.0,7.0,75,0.00,CLR,CLR,0.09,WeatherDisplay:10.37,2013-11-09 16:10:00,
2013-11-09 16:20:00,45.7,38.2,29.44,WNW,288,3.0,6.0,75,0.00,CLR,CLR,0.09,WeatherDisplay:10.37,2013-11-09 16:20:00,
2013-11-09 16:30:00,45.5,38.4,29.44,NW,316,0.0,5.0,76,0.00,CLR,CLR,0.09,WeatherDisplay:10.37,2013-11-09 16:30:00,
2013-11-09 16:40:00,45.3,38.2,29.44,NNW,340,1.0,2.0,76,0.01,RA,RA,0.11,WeatherDisplay:10.37,2013-11-09 16:40:00,
2013-11-09 16:50:00,45.1,38.4,29.44,NNE,20,1.0,2.0,77,0.00,CLR,CLR,0.11,WeatherDisplay:10.37,2013-11-09 16:50:00,
2013-11-09 17:00:00,45.0,38.5,29.44,ENE,69,0.0,2.0,78,0.01,RA,RA,0.12,WeatherDisplay:10.37,2013-11-09 17:00:00,
2013-11-09 17:10:00,44.8,38.7,29.44,ENE,72,1.0,3.0,79,0.00,,,0.12,WeatherDisplay:10.37,2013-11-09 17:10:00,
2013-11-09 17:20:00,44.6,38.8,29.45,East,90,3.0,5.0,80,0.00,CLR,CLR,0.12,WeatherDisplay:10.37,2013-11-09 17:20:00,
2013-11-09 17:30:00,44.4,39.2,29.45,East,100,1.0,3.0,82,0.00,CLR,CLR,0.12,WeatherDisplay:10.37,2013-11-09 17:30:00,
2013-11-09 17:40:00,44.1,39.2,29.45,ESE,118,1.0,2.0,83,0.00,CLR,CLR,0.12,WeatherDisplay:10.37,2013-11-09 17:40:00,
2013-11-09 17:50:00,44.1,39.2,29.46,East,95,1.0,2.0,83,0.00,CLR,CLR,0.12,WeatherDisplay:10.37,2013-11-09 17:50:00,
2013-11-09 18:00:00,44.1,39.2,29.45,ESE,103,1.0,2.0,83,0.00,CLR,CLR,0.12,WeatherDisplay:10.37,2013-11-09 18:00:00,
2013-11-09 18:10:00,44.1,39.2,29.46,SE,132,0.0,2.0,83,0.00,CLR,CLR,0.12,WeatherDisplay:10.37,2013-11-09 18:10:00,
2013-11-09 18:20:00,44.1,39.2,29.46,SSE,163,1.0,2.0,83,0.00,CLR,CLR,0.12,WeatherDisplay:10.37,2013-11-09 18:20:00,
2013-11-09 18:30:00,44.1,39.2,29.46,SSE,161,0.0,2.0,83,0.00,CLR,CLR,0.12,WeatherDisplay:10.37,2013-11-09 18:30:00,
2013-11-09 18:40:00,44.1,39.5,29.46,SE,133,1.0,2.0,84,0.00,CLR,CLR,0.12,WeatherDisplay:10.37,2013-11-09 18:40:00,
2013-11-09 18:50:00,43.9,39.7,29.46,SE,130,1.0,2.0,85,0.00,CLR,CLR,0.12,WeatherDisplay:10.37,2013-11-09 18:50:00,
2013-11-09 19:00:00,43.8,39.9,29.47,SSE,147,2.0,3.0,86,0.00,CLR,CLR,0.12,WeatherDisplay:10.37,2013-11-09 19:00:00,
2013-11-09 19:10:00,43.9,40.0,29.47,South,177,2.0,4.0,86,0.00,CLR,CLR,0.12,WeatherDisplay:10.37,2013-11-09 19:10:00,
2013-11-09 19:20:00,43.7,39.8,29.48,South,180,1.0,3.0,86,0.00,CLR,CLR,0.12,WeatherDisplay:10.37,2013-11-09 19:20:00,
2013-11-09 19:30:00,43.7,39.8,29.48,South,169,0.0,2.0,86,0.00,CLR,CLR,0.12,WeatherDisplay:10.37,2013-11-09 19:30:00,
2013-11-09 19:40:00,43.7,39.8,29.48,SSE,157,0.0,3.0,86,0.00,CLR,CLR,0.12,WeatherDisplay:10.37,2013-11-09 19:40:00,
2013-11-09 19:50:00,43.7,39.8,29.49,SE,145,1.0,2.0,86,0.00,CLR,CLR,0.12,WeatherDisplay:10.37,2013-11-09 19:50:00,
2013-11-09 20:00:00,43.7,39.8,29.50,SSW,197,1.0,3.0,86,0.00,CLR,CLR,0.12,WeatherDisplay:10.37,2013-11-09 20:00:00,
2013-11-09 20:10:00,44.2,40.3,29.51,SW,225,3.0,5.0,86,0.00,CLR,CLR,0.12,WeatherDisplay:10.37,2013-11-09 20:10:00,
2013-11-09 20:20:00,44.3,40.4,29.51,SW,225,3.0,6.0,86,0.00,CLR,CLR,0.12,WeatherDisplay:10.37,2013-11-09 20:20:00,
2013-11-09 20:30:00,44.6,40.4,29.51,SW,231,5.0,7.0,85,0.00,CLR,CLR,0.12,WeatherDisplay:10.37,2013-11-09 20:30:00,
2013-11-09 20:40:00,45.0,40.4,29.52,SW,235,3.0,6.0,84,0.00,CLR,CLR,0.12,WeatherDisplay:10.37,2013-11-09 20:40:00,
2013-11-09 20:50:00,45.1,40.6,29.54,WSW,249,3.0,6.0,84,0.00,CLR,CLR,0.12,WeatherDisplay:10.37,2013-11-09 20:50:00,
2013-11-09 21:00:00,45.3,40.5,29.53,West,272,5.0,6.0,83,0.00,CLR,CLR,0.12,WeatherDisplay:10.37,2013-11-09 21:00:00,
2013-11-09 21:10:00,45.7,40.5,29.54,West,265,5.0,7.0,82,0.00,CLR,CLR,0.12,WeatherDisplay:10.37,2013-11-09 21:10:00,
2013-11-09 21:20:00,45.5,40.3,29.55,West,276,5.0,7.0,82,0.00,CLR,CLR,0.12,WeatherDisplay:10.37,2013-11-09 21:20:00,
2013-11-09 21:30:00,45.5,40.0,29.55,West,267,5.0,7.0,81,0.00,CLR,CLR,0.12,WeatherDisplay:10.37,2013-11-09 21:30:00,
2013-11-09 21:40:00,45.5,40.0,29.56,WNW,286,6.0,8.0,81,0.00,CLR,CLR,0.12,WeatherDisplay:10.37,2013-11-09 21:40:00,
2013-11-09 21:50:00,45.5,39.0,29.57,West,271,6.0,8.0,78,0.00,CLR,CLR,0.12,WeatherDisplay:10.37,2013-11-09 21:50:00,
2013-11-09 22:00:00,45.3,38.5,29.57,WNW,292,7.0,8.0,77,0.00,CLR,CLR,0.12,WeatherDisplay:10.37,2013-11-09 22:00:00,
2013-11-09 22:10:00,45.1,38.4,29.57,West,267,5.0,33.0,77,0.00,CLR,CLR,0.12,WeatherDisplay:10.37,2013-11-09 22:10:00,
2013-11-09 22:20:00,45.5,38.3,29.58,West,281,7.0,10.0,76,0.00,CLR,CLR,0.12,WeatherDisplay:10.37,2013-11-09 22:20:00,
2013-11-09 22:30:00,45.9,38.4,29.59,WNW,298,8.0,12.0,75,0.00,CLR,CLR,0.12,WeatherDisplay:10.37,2013-11-09 22:30:00,
2013-11-09 22:40:00,45.7,38.5,29.59,WNW,289,7.0,12.0,76,0.00,CLR,CLR,0.12,WeatherDisplay:10.37,2013-11-09 22:40:00,
2013-11-09 22:50:00,45.5,39.0,29.60,WNW,298,6.0,10.0,78,0.00,CLR,CLR,0.12,WeatherDisplay:10.37,2013-11-09 22:50:00,
2013-11-09 23:00:00,45.7,39.2,29.61,West,281,6.0,10.0,78,0.00,CLR,CLR,0.12,WeatherDisplay:10.37,2013-11-09 23:00:00,
2013-11-09 23:10:00,45.7,39.2,29.61,NW,307,7.0,10.0,78,0.00,CLR,CLR,0.12,WeatherDisplay:10.37,2013-11-09 23:10:00,
2013-11-09 23:20:00,45.7,38.5,29.62,WNW,298,7.0,13.0,76,0.00,CLR,CLR,0.12,WeatherDisplay:10.37,2013-11-09 23:20:00,
2013-11-09 23:30:00,45.9,38.7,29.63,NNE,28,5.0,9.0,76,0.00,CLR,CLR,0.12,WeatherDisplay:10.37,2013-11-09 23:30:00,
2013-11-09 23:40:00,45.7,38.2,29.63,NNE,27,5.0,9.0,75,0.00,CLR,CLR,0.12,WeatherDisplay:10.37,2013-11-09 23:40:00,
2013-11-09 23:50:00,45.2,38.1,29.64,NNE,24,5.0,9.0,76,0.00,CLR,CLR,0.12,WeatherDisplay:10.37,2013-11-09 23:50:00,